Time;durP1;ratioP1;P1;durP2;ratioP2;P2;SDS_P1;SDS_P2;PMS_P1;PMS_P2;Temp;Humidity;BMP_temperature;BMP_pressure;BME280_temperature;BME280_humidity;BME280_pressure;Samples;Min_cycle;Max_cycle;Signal;HPM_P1;HPM_P2
2020/12/02 00:02:21;;;;;;;38.13;13.13;;;5.10;99.90;;;;;;5116344;28;20404;-78
2020/12/02 00:04:49;;;;;;;40.67;13.45;;;5.10;99.90;;;;;;5116615;27;20051;-78
2020/12/02 00:07:16;;;;;;;32.63;12.75;;;5.00;99.90;;;;;;5115731;28;20126;-79
2020/12/02 00:09:42;;;;;;;37.85;13.70;;;;;;;;;;5115571;28;20051;-78
2020/12/02 00:12:08;;;;;;;36.10;14.18;;;5.00;99.90;;;;;;5114775;28;20039;-79
2020/12/02 00:14:34;;;;;;;43.45;13.77;;;4.90;99.90;;;;;;5115475;28;20065;-78
2020/12/02 00:17:00;;;;;;;43.05;14.43;;;4.80;99.90;;;;;;5117307;28;20043;-78
2020/12/02 00:19:27;;;;;;;41.55;13.77;;;;;;;;;;5102381;28;20048;-79
2020/12/02 00:22:08;;;;;;;41.83;14.73;;;4.80;99.90;;;;;;5109245;28;20044;-78
2020/12/02 00:24:34;;;;;;;42.45;15.07;;;4.90;99.90;;;;;;5109593;28;20051;-78
2020/12/02 00:27:02;;;;;;;39.20;14.55;;;4.80;99.90;;;;;;5115545;28;20035;-78
2020/12/02 00:29:28;;;;;;;41.92;14.48;;;4.80;99.90;;;;;;5115834;28;20036;-78
2020/12/02 00:31:54;;;;;;;35.85;13.35;;;4.80;99.90;;;;;;5115219;28;20038;-78
2020/12/02 00:34:20;;;;;;;48.20;15.40;;;4.70;99.90;;;;;;5113572;28;20047;-76
2020/12/02 00:36:46;;;;;;;42.10;15.00;;;4.70;99.90;;;;;;5114926;28;20031;-76
2020/12/02 00:39:11;;;;;;;43.17;15.40;;;4.70;99.90;;;;;;5114555;28;20100;-78
2020/12/02 00:41:37;;;;;;;40.67;14.10;;;4.70;99.90;;;;;;5115231;28;20046;-78
2020/12/02 00:44:03;;;;;;;47.85;15.77;;;4.70;99.90;;;;;;5115104;28;20039;-78
2020/12/02 00:46:28;;;;;;;47.28;15.35;;;4.70;99.90;;;;;;5104009;28;20501;-76
2020/12/02 00:48:55;;;;;;;42.28;14.77;;;4.70;99.90;;;;;;5094366;28;20055;-78
2020/12/02 00:51:21;;;;;;;55.65;16.90;;;4.70;99.90;;;;;;5095310;28;20484;-78
2020/12/02 00:53:46;;;;;;;42.70;15.10;;;4.70;99.90;;;;;;5095834;28;20057;-78
2020/12/02 00:56:14;;;;;;;49.88;16.13;;;4.70;99.90;;;;;;5094813;28;20040;-78
2020/12/02 00:58:55;;;;;;;51.13;16.60;;;4.70;99.90;;;;;;5094919;28;20047;-78
2020/12/02 01:01:29;;;;;;;44.30;16.05;;;4.70;99.90;;;;;;5095058;28;20111;-78
2020/12/02 01:03:58;;;;;;;49.30;16.05;;;4.70;99.90;;;;;;5094311;28;20036;-78
2020/12/02 01:06:24;;;;;;;56.13;17.00;;;4.70;99.90;;;;;;5094681;28;20050;-78
2020/12/02 01:08:50;;;;;;;51.28;16.95;;;4.70;99.90;;;;;;5094254;28;20028;-78
2020/12/02 01:11:20;;;;;;;52.55;17.58;;;4.70;99.90;;;;;;5093296;28;20570;-78
2020/12/02 01:13:46;;;;;;;;;;;4.70;99.90;;;;;;5095796;28;20043;-78
2020/12/02 01:16:16;;;;;;;51.20;16.60;;;4.70;99.90;;;;;;5093866;28;20470;-78
2020/12/02 01:18:45;;;;;;;52.47;17.10;;;4.70;99.90;;;;;;5094863;28;20035;-78
2020/12/02 01:21:22;;;;;;;51.03;16.30;;;4.70;99.90;;;;;;5095412;28;20101;-79
2020/12/02 01:23:52;;;;;;;53.15;18.85;;;4.70;99.90;;;;;;5095290;28;20394;-78
2020/12/02 01:26:19;;;;;;;53.78;17.70;;;4.70;99.90;;;;;;5095045;28;20093;-78
2020/12/02 01:28:47;;;;;;;47.70;18.20;;;4.70;99.90;;;;;;5094243;28;20063;-78
2020/12/02 01:31:13;;;;;;;55.53;18.38;;;4.70;99.90;;;;;;5094616;28;20031;-78
2020/12/02 01:33:39;;;;;;;52.58;20.05;;;4.70;99.90;;;;;;5093061;28;20394;-78
2020/12/02 01:36:05;;;;;;;58.70;21.00;;;4.70;99.90;;;;;;5092762;28;20485;-78
2020/12/02 01:38:37;;;;;;;60.53;21.65;;;4.70;99.90;;;;;;5094128;28;20043;-77
2020/12/02 01:41:03;;;;;;;60.15;22.85;;;4.60;99.90;;;;;;5094301;28;20487;-78
2020/12/02 01:43:28;;;;;;;73.13;24.90;;;4.60;99.90;;;;;;5094208;28;20044;-78
2020/12/02 01:46:06;;;;;;;70.05;24.10;;;4.60;99.90;;;;;;5092348;28;20139;-78
2020/12/02 01:49:01;;;;;;;68.07;25.75;;;4.60;99.90;;;;;;5093955;28;20050;-77
2020/12/02 01:51:44;;;;;;;75.70;26.27;;;4.50;99.90;;;;;;5093499;28;20047;-77
2020/12/02 01:54:16;;;;;;;68.45;25.08;;;4.50;99.90;;;;;;5092280;28;20202;-78
2020/12/02 01:56:49;;;;;;;68.40;28.05;;;4.50;99.90;;;;;;5092195;28;20101;-78
2020/12/02 01:59:29;;;;;;;76.03;29.00;;;4.50;99.90;;;;;;5091875;28;20172;-77
2020/12/02 02:02:09;;;;;;;83.15;29.70;;;4.50;99.90;;;;;;5093719;28;20439;-77
2020/12/02 02:04:42;;;;;;;82.32;29.80;;;4.50;99.90;;;;;;5094407;28;20055;-78
2020/12/02 02:07:15;;;;;;;75.95;29.05;;;4.50;99.90;;;;;;5092953;28;20515;-78
2020/12/02 02:09:43;;;;;;;77.55;29.10;;;4.50;99.90;;;;;;5092682;28;20090;-78
2020/12/02 02:12:46;;;;;;;85.47;29.20;;;4.60;99.90;;;;;;5094021;28;20424;-78
2020/12/02 02:15:27;;;;;;;77.72;30.42;;;4.60;99.90;;;;;;5092540;28;20028;-78
2020/12/02 02:17:55;;;;;;;85.97;30.27;;;4.60;99.90;;;;;;5097103;28;20550;-78
2020/12/02 02:20:22;;;;;;;78.97;30.77;;;4.60;99.90;;;;;;5096868;28;20409;-78
2020/12/02 02:22:50;;;;;;;76.15;29.75;;;4.50;99.90;;;;;;5096189;28;20036;-78
2020/12/02 02:25:17;;;;;;;79.88;31.75;;;4.50;99.90;;;;;;5097394;28;20038;-78
2020/12/02 02:27:45;;;;;;;78.13;29.80;;;4.50;99.90;;;;;;5097712;28;20090;-79
2020/12/02 02:30:10;;;;;;;73.40;29.90;;;4.50;99.90;;;;;;5097711;28;20079;-78
2020/12/02 02:32:36;;;;;;;80.55;30.33;;;4.50;99.90;;;;;;5098239;28;20067;-78
2020/12/02 02:35:04;;;;;;;78.60;31.13;;;4.50;99.90;;;;;;5097521;28;20040;-78
2020/12/02 02:37:30;;;;;;;79.35;31.42;;;4.50;99.90;;;;;;5098316;28;20079;-78
2020/12/02 02:39:57;;;;;;;81.90;31.92;;;4.50;99.90;;;;;;5097241;28;20406;-78
2020/12/02 02:42:29;;;;;;;74.15;30.23;;;4.50;99.90;;;;;;5097792;28;20080;-78
2020/12/02 02:44:57;;;;;;;77.63;29.95;;;4.60;99.90;;;;;;5096444;28;20047;-78
2020/12/02 02:47:23;;;;;;;82.80;30.58;;;4.60;99.90;;;;;;5098043;28;20134;-78
2020/12/02 02:49:49;;;;;;;76.05;31.13;;;4.50;99.90;;;;;;5097446;28;20059;-78
2020/12/02 02:52:15;;;;;;;77.50;30.48;;;4.60;99.90;;;;;;5098250;28;20040;-78
2020/12/02 02:54:40;;;;;;;84.72;30.88;;;4.60;99.90;;;;;;5096681;28;20623;-78
2020/12/02 02:57:06;;;;;;;78.38;30.88;;;4.60;99.90;;;;;;5096508;28;20046;-78
2020/12/02 02:59:32;;;;;;;74.00;30.13;;;4.60;99.90;;;;;;5097173;28;20040;-78
2020/12/02 03:01:59;;;;;;;79.47;30.80;;;4.60;99.90;;;;;;5097825;28;20047;-78
2020/12/02 03:04:24;;;;;;;76.90;29.60;;;4.60;99.90;;;;;;5097658;28;20048;-79
2020/12/02 03:06:50;;;;;;;74.95;29.50;;;4.60;99.90;;;;;;5096505;28;20039;-78
2020/12/02 03:09:16;;;;;;;71.60;30.38;;;4.60;99.90;;;;;;5096964;28;20397;-78
2020/12/02 03:11:42;;;;;;;70.55;28.52;;;4.60;99.90;;;;;;5097778;28;20028;-78
2020/12/02 03:14:10;;;;;;;77.60;30.02;;;4.70;99.90;;;;;;5097794;28;20039;-78
2020/12/02 03:16:39;;;;;;;79.65;32.75;;;4.60;99.90;;;;;;5097296;28;20354;-78
2020/12/02 03:19:10;;;;;;;74.53;30.67;;;4.60;99.90;;;;;;5095215;28;20149;-79
2020/12/02 03:21:39;;;;;;;76.28;31.63;;;4.60;99.90;;;;;;5095908;28;20040;-78
2020/12/02 03:24:08;;;;;;;70.57;30.35;;;4.70;99.90;;;;;;5097382;28;20044;-78
2020/12/02 03:26:34;;;;;;;71.28;30.13;;;4.70;99.90;;;;;;5097396;28;20040;-78
2020/12/02 03:29:00;;;;;;;75.72;29.38;;;4.60;99.90;;;;;;5095304;28;20047;-78
2020/12/02 03:31:26;;;;;;;68.05;28.73;;;4.60;99.90;;;;;;5097138;28;20047;-79
2020/12/02 03:33:51;;;;;;;73.63;28.88;;;4.70;99.90;;;;;;5097597;28;20039;-78
2020/12/02 03:36:19;;;;;;;69.30;29.88;;;4.70;99.90;;;;;;5097270;28;20094;-78
2020/12/02 03:38:46;;;;;;;65.63;28.33;;;4.70;99.90;;;;;;5095390;28;20090;-78
2020/12/02 03:41:12;;;;;;;71.50;28.88;;;4.70;99.90;;;;;;5096628;28;20044;-78
2020/12/02 03:43:38;;;;;;;65.20;27.52;;;4.60;99.90;;;;;;5096538;28;20040;-78
2020/12/02 03:46:04;;;;;;;66.78;27.63;;;4.60;99.90;;;;;;5095744;28;20032;-78
2020/12/02 03:48:29;;;;;;;71.20;28.75;;;4.60;99.90;;;;;;5095782;28;20039;-78
2020/12/02 03:50:55;;;;;;;67.15;27.60;;;4.60;99.90;;;;;;5096427;28;20466;-78
2020/12/02 03:53:21;;;;;;;63.83;27.90;;;4.60;99.90;;;;;;5097384;28;20036;-79
2020/12/02 03:55:47;;;;;;;61.67;27.70;;;4.60;99.90;;;;;;5097283;28;20040;-78
2020/12/02 03:58:13;;;;;;;57.97;27.02;;;4.60;99.90;;;;;;5095905;28;20040;-78
2020/12/02 04:00:38;;;;;;;55.60;25.73;;;4.70;99.90;;;;;;5096392;28;20094;-78
2020/12/02 04:03:05;;;;;;;58.25;25.20;;;4.60;99.90;;;;;;5097267;28;20036;-78
2020/12/02 04:05:31;;;;;;;63.92;27.00;;;4.60;99.90;;;;;;5097169;28;20040;-79
2020/12/02 04:07:56;;;;;;;62.03;25.52;;;4.60;99.90;;;;;;5095294;28;20135;-78
2020/12/02 04:10:23;;;;;;;59.95;26.27;;;4.40;99.90;;;;;;5096143;28;20040;-79
2020/12/02 04:12:49;;;;;;;59.83;26.77;;;4.50;99.90;;;;;;5097372;28;20069;-78
2020/12/02 04:15:17;;;;;;;57.80;26.48;;;4.50;99.90;;;;;;5096842;28;20032;-78
2020/12/02 04:17:43;;;;;;;60.90;27.25;;;4.40;99.90;;;;;;5096218;28;20075;-79
2020/12/02 04:20:09;;;;;;;58.80;25.95;;;4.40;99.90;;;;;;5095515;28;20089;-78
2020/12/02 04:22:35;;;;;;;56.35;26.77;;;4.50;99.90;;;;;;5096038;28;20035;-78
2020/12/02 04:25:01;;;;;;;63.25;26.67;;;4.40;99.90;;;;;;5096105;28;20036;-78
2020/12/02 04:27:28;;;;;;;58.92;27.42;;;4.40;99.90;;;;;;5096309;28;20482;-78
2020/12/02 04:29:54;;;;;;;59.70;26.10;;;;;;;;;;5095846;28;20054;-78
2020/12/02 04:32:19;;;;;;;59.75;24.75;;;4.30;99.90;;;;;;5094642;28;20044;-78
2020/12/02 04:34:45;;;;;;;60.63;27.20;;;4.30;99.90;;;;;;5095779;28;20033;-79
2020/12/02 04:37:10;;;;;;;60.20;26.70;;;4.10;99.90;;;;;;5095914;28;20051;-78
2020/12/02 04:39:36;;;;;;;64.30;26.90;;;4.20;99.90;;;;;;5095197;28;20089;-78
2020/12/02 04:42:04;;;;;;;56.97;26.20;;;4.10;99.90;;;;;;5096678;28;20036;-78
2020/12/02 04:44:31;;;;;;;60.13;26.88;;;4.10;99.90;;;;;;5094491;28;20513;-78
2020/12/02 04:46:57;;;;;;;58.75;25.50;;;4.20;99.90;;;;;;5094302;28;20135;-78
2020/12/02 04:49:26;;;;;;;62.60;26.50;;;4.20;99.90;;;;;;5095322;28;20068;-79
2020/12/02 04:51:55;;;;;;;61.00;27.10;;;4.20;99.90;;;;;;5096315;28;20036;-78
2020/12/02 04:54:21;;;;;;;60.08;25.98;;;4.20;99.90;;;;;;5094925;28;20064;-77
2020/12/02 04:56:48;;;;;;;58.10;26.58;;;4.20;99.90;;;;;;5093305;28;20437;-77
2020/12/02 04:59:14;;;;;;;59.38;26.73;;;4.10;99.90;;;;;;5093801;28;20551;-78
2020/12/02 05:01:49;;;;;;;59.35;26.85;;;4.10;99.90;;;;;;5094045;28;20089;-78
2020/12/02 05:04:18;;;;;;;62.33;26.95;;;4.10;99.90;;;;;;5094774;28;20476;-78
2020/12/02 05:06:45;;;;;;;62.85;27.15;;;4.10;99.90;;;;;;5093771;28;20040;-78
2020/12/02 05:09:16;;;;;;;64.72;27.50;;;4.10;99.90;;;;;;5094966;28;20448;-78
2020/12/02 05:11:52;;;;;;;62.15;26.85;;;4.10;99.90;;;;;;5095242;28;20044;-78
2020/12/02 05:14:17;;;;;;;61.60;26.65;;;4.00;99.90;;;;;;5093110;28;20036;-77
2020/12/02 05:16:43;;;;;;;67.20;26.20;;;4.00;99.90;;;;;;5094269;28;20046;-77
2020/12/02 05:19:17;;;;;;;63.38;26.90;;;4.10;99.90;;;;;;5093479;28;20032;-78
2020/12/02 05:21:42;;;;;;;55.88;25.75;;;4.00;99.90;;;;;;5094084;28;20056;-78
2020/12/02 05:24:11;;;;;;;59.88;26.65;;;4.00;99.90;;;;;;5094102;28;20040;-77
2020/12/02 05:26:41;;;;;;;64.53;27.50;;;4.10;99.90;;;;;;5094719;28;20425;-77
2020/12/02 05:29:29;;;;;;;63.20;25.60;;;4.10;99.90;;;;;;5094769;28;20047;-78
2020/12/02 05:32:02;;;;;;;53.58;24.92;;;4.10;99.90;;;;;;5093736;28;20051;-78
2020/12/02 05:34:30;;;;;;;63.60;25.95;;;4.10;99.90;;;;;;5094538;28;20039;-78
2020/12/02 05:36:57;;;;;;;61.03;26.20;;;4.00;99.90;;;;;;5094369;28;20495;-77
2020/12/02 05:39:41;;;;;;;63.33;26.45;;;4.00;99.90;;;;;;5092665;28;20093;-77
2020/12/02 05:42:16;;;;;;;52.33;24.67;;;4.10;99.90;;;;;;5093995;28;20374;-77
2020/12/02 05:44:42;;;;;;;56.40;24.90;;;4.00;99.90;;;;;;5094020;28;20040;-78
2020/12/02 05:47:16;;;;;;;52.00;23.90;;;4.10;99.90;;;;;;5094090;28;20047;-77
2020/12/02 05:49:48;;;;;;;56.70;25.17;;;4.00;99.90;;;;;;5093478;28;20089;-78
2020/12/02 05:52:19;;;;;;;58.33;26.15;;;4.00;99.90;;;;;;5097668;28;20040;-77
2020/12/02 05:54:46;;;;;;;59.72;25.63;;;4.00;99.90;;;;;;5097782;28;20482;-77
2020/12/02 05:57:15;;;;;;;53.08;23.77;;;4.00;99.90;;;;;;5097628;28;20046;-77
2020/12/02 05:59:41;;;;;;;52.72;24.08;;;4.00;99.90;;;;;;5096979;28;20040;-77
2020/12/02 06:02:07;;;;;;;60.83;24.65;;;4.00;99.90;;;;;;5096482;28;20044;-77
2020/12/02 06:04:33;;;;;;;61.10;25.05;;;4.00;99.90;;;;;;5097707;28;20127;-77
2020/12/02 06:06:59;;;;;;;60.08;25.23;;;4.00;99.90;;;;;;5097776;28;20079;-78
2020/12/02 06:09:41;;;;;;;58.10;24.92;;;4.00;99.90;;;;;;5097725;28;20040;-77
2020/12/02 06:12:11;;;;;;;58.25;25.88;;;4.00;99.90;;;;;;5096294;28;20188;-78
2020/12/02 06:14:37;;;;;;;52.03;23.67;;;4.00;99.90;;;;;;5097894;28;20116;-78
2020/12/02 06:17:03;;;;;;;56.60;25.02;;;3.90;99.90;;;;;;5096169;28;20071;-77
2020/12/02 06:19:31;;;;;;;48.22;23.17;;;3.90;99.90;;;;;;5095498;28;20409;-77
2020/12/02 06:21:59;;;;;;;52.63;22.80;;;3.90;99.90;;;;;;5095834;28;20040;-77
2020/12/02 06:24:47;;;;;;;62.28;24.98;;;4.00;99.90;;;;;;5097533;28;20040;-78
2020/12/02 06:27:39;;;;;;;49.83;23.10;;;3.90;99.90;;;;;;5091642;28;20052;-77
2020/12/02 06:30:15;;;;;;;58.75;24.60;;;3.90;99.90;;;;;;5096537;28;20036;-77
2020/12/02 06:32:57;;;;;;;49.03;22.55;;;3.90;99.90;;;;;;5096322;28;20047;-77
2020/12/02 06:35:23;;;;;;;56.72;23.52;;;3.90;99.90;;;;;;5095758;28;20040;-77
2020/12/02 06:38:15;;;;;;;51.33;21.55;;;3.90;99.90;;;;;;5097423;28;20489;-78
2020/12/02 06:41:04;;;;;;;48.80;21.33;;;3.80;99.90;;;;;;5094955;28;20127;-77
2020/12/02 06:43:31;;;;;;;55.50;23.73;;;3.80;99.90;;;;;;5097004;28;20040;-77
2020/12/02 06:46:00;;;;;;;49.42;21.85;;;3.80;99.90;;;;;;5097004;28;20036;-77
2020/12/02 06:48:29;;;;;;;47.88;22.75;;;3.80;99.90;;;;;;5096056;28;20048;-77
2020/12/02 06:50:58;;;;;;;54.40;23.70;;;3.80;99.90;;;;;;5095071;28;20044;-77
2020/12/02 06:53:24;;;;;;;57.05;24.10;;;3.80;99.90;;;;;;5096785;28;20043;-77
2020/12/02 06:55:57;;;;;;;51.60;22.65;;;3.80;99.90;;;;;;5096768;28;20048;-77
2020/12/02 06:58:22;;;;;;;49.10;22.20;;;3.60;99.90;;;;;;5097718;28;20067;-78
2020/12/02 07:00:50;;;;;;;60.30;24.35;;;3.80;99.90;;;;;;5097688;28;20442;-79
2020/12/02 07:03:24;;;;;;;55.78;24.00;;;3.70;99.90;;;;;;5096527;28;20067;-79
2020/12/02 07:05:52;;;;;;;53.17;23.23;;;3.80;99.90;;;;;;5098183;28;20385;-77
2020/12/02 07:08:21;;;;;;;48.92;22.40;;;3.90;99.90;;;;;;5098004;28;20119;-78
2020/12/02 07:11:01;;;;;;;56.00;23.23;;;4.00;99.90;;;;;;5097146;28;20044;-78
2020/12/02 07:13:29;;;;;;;50.50;22.80;;;4.00;99.90;;;;;;5097851;28;20032;-78
2020/12/02 07:15:55;;;;;;;52.15;23.52;;;4.10;99.90;;;;;;5097990;28;20416;-77
2020/12/02 07:18:23;;;;;;;55.50;22.52;;;4.10;99.90;;;;;;5097927;28;20036;-79
2020/12/02 07:20:59;;;;;;;51.40;21.63;;;4.10;99.90;;;;;;5096668;28;20066;-77
2020/12/02 07:23:30;;;;;;;50.15;21.42;;;4.10;99.90;;;;;;5097180;28;20043;-78
2020/12/02 07:25:56;;;;;;;53.38;23.73;;;4.10;99.90;;;;;;5097240;28;20074;-77
2020/12/02 07:28:22;;;;;;;51.50;23.85;;;4.10;99.90;;;;;;5095853;28;20111;-78
2020/12/02 07:30:48;;;;;;;53.45;23.70;;;4.10;99.90;;;;;;5096758;28;20514;-79
2020/12/02 07:33:22;;;;;;;57.55;23.38;;;4.00;99.90;;;;;;5096684;28;20032;-78
2020/12/02 07:36:03;;;;;;;53.67;23.58;;;4.10;99.90;;;;;;5097414;28;20044;-78
2020/12/02 07:38:28;;;;;;;51.42;22.63;;;4.10;99.90;;;;;;5096083;28;20036;-78
2020/12/02 07:41:06;;;;;;;51.65;22.35;;;4.10;99.90;;;;;;5096867;28;20044;-77
2020/12/02 07:43:32;;;;;;;53.83;22.95;;;4.00;99.90;;;;;;5097300;28;20489;-79
2020/12/02 07:46:02;;;;;;;52.53;22.77;;;4.00;99.90;;;;;;5096895;28;20401;-77
2020/12/02 07:48:29;;;;;;;50.95;23.77;;;4.10;99.90;;;;;;5095796;28;20036;-79
2020/12/02 07:50:59;;;;;;;52.63;23.85;;;4.10;99.90;;;;;;5096664;28;20443;-77
2020/12/02 07:53:35;;;;;;;;;;;4.10;99.90;;;;;;5096295;28;20086;-78
2020/12/02 07:56:02;;;;;;;53.63;22.65;;;4.10;99.90;;;;;;5096790;28;19955;-78
2020/12/02 07:58:31;;;;;;;54.42;22.85;;;3.90;99.90;;;;;;5095551;28;20036;-79
2020/12/02 08:01:04;;;;;;;55.70;23.00;;;3.90;99.90;;;;;;5096830;28;20046;-78
2020/12/02 08:03:34;;;;;;;58.45;23.90;;;3.90;99.90;;;;;;5097239;28;20048;-78
2020/12/02 08:06:12;;;;;;;51.28;23.63;;;4.10;99.90;;;;;;5095435;28;20481;-78
2020/12/02 08:08:37;;;;;;;53.30;22.65;;;4.10;99.90;;;;;;5095821;28;20036;-78
2020/12/02 08:11:06;;;;;;;54.58;23.92;;;5.60;99.90;;;;;;5096216;28;20042;-79
2020/12/02 08:13:34;;;;;;;55.92;24.23;;;4.20;99.90;;;;;;5095951;28;20056;-78
2020/12/02 08:16:01;;;;;;;60.95;24.55;;;4.20;99.90;;;;;;5095083;28;20042;-78
2020/12/02 08:18:29;;;;;;;54.47;23.40;;;4.20;99.90;;;;;;5096745;28;20513;-79
2020/12/02 08:21:06;;;;;;;57.47;23.48;;;4.20;99.90;;;;;;5096695;28;20501;-78
2020/12/02 08:23:35;;;;;;;55.35;22.95;;;4.10;99.90;;;;;;5096796;28;20179;-78
2020/12/02 08:26:08;;;;;;;55.65;23.58;;;4.20;99.90;;;;;;5096894;28;20040;-78
2020/12/02 08:28:36;;;;;;;56.83;23.55;;;4.20;99.90;;;;;;5096669;28;20047;-80
2020/12/02 08:31:14;;;;;;;54.20;22.63;;;4.20;99.90;;;;;;5094890;28;20161;-78
2020/12/02 08:33:40;;;;;;;57.90;24.65;;;4.20;99.90;;;;;;5095145;28;20036;-78
2020/12/02 08:36:08;;;;;;;61.00;25.33;;;4.20;99.90;;;;;;5096634;28;20043;-78
2020/12/02 08:38:37;;;;;;;58.35;23.38;;;4.20;99.90;;;;;;5096782;28;20074;-79
2020/12/02 08:41:12;;;;;;;59.45;24.42;;;4.20;99.90;;;;;;5096296;28;20036;-78
2020/12/02 08:43:40;;;;;;;53.88;23.63;;;4.20;99.90;;;;;;5096727;28;20048;-79
2020/12/02 08:46:17;;;;;;;64.65;23.70;;;4.20;99.90;;;;;;5095109;28;20048;-78
2020/12/02 08:48:46;;;;;;;56.55;23.40;;;4.20;99.90;;;;;;5096158;28;20569;-78
2020/12/02 08:51:15;;;;;;;50.75;22.80;;;4.20;99.90;;;;;;5093262;28;20043;-78
2020/12/02 08:53:42;;;;;;;61.33;26.17;;;4.20;99.90;;;;;;5096386;28;20055;-78
2020/12/02 08:56:22;;;;;;;55.97;23.50;;;4.20;99.90;;;;;;5096551;28;20440;-78
2020/12/02 08:58:47;;;;;;;59.42;25.08;;;4.10;99.90;;;;;;5092971;28;20485;-78
2020/12/02 09:01:13;;;;;;;65.70;25.35;;;4.00;99.90;;;;;;5094681;28;20040;-78
2020/12/02 09:03:38;;;;;;;60.58;23.65;;;4.10;99.90;;;;;;5095610;28;20035;-78
2020/12/02 09:06:04;;;;;;;65.00;24.83;;;4.10;99.90;;;;;;5095657;28;20453;-78
2020/12/02 09:08:29;;;;;;;63.67;25.08;;;4.10;99.90;;;;;;5094626;28;20039;-77
2020/12/02 09:10:55;;;;;;;66.43;25.67;;;4.10;99.90;;;;;;5093401;28;20040;-78
2020/12/02 09:13:21;;;;;;;51.45;23.55;;;4.10;99.90;;;;;;5096286;28;20074;-78
2020/12/02 09:15:47;;;;;;;57.13;23.70;;;4.10;99.90;;;;;;5095539;28;20043;-77
2020/12/02 09:18:13;;;;;;;67.75;25.67;;;4.20;99.90;;;;;;5096592;28;20048;-78
2020/12/02 09:20:38;;;;;;;62.35;24.65;;;4.20;99.90;;;;;;5094090;28;20393;-77
2020/12/02 09:23:04;;;;;;;61.70;25.42;;;4.20;99.90;;;;;;5095085;28;20040;-78
2020/12/02 09:25:30;;;;;;;68.53;23.85;;;4.10;99.90;;;;;;5096163;28;20463;-78
2020/12/02 09:27:55;;;;;;;68.25;24.52;;;4.10;99.90;;;;;;5096920;28;20032;-78
2020/12/02 09:30:22;;;;;;;62.53;24.88;;;4.20;99.90;;;;;;5096325;28;20040;-78
2020/12/02 09:32:48;;;;;;;57.65;23.48;;;;;;;;;;5095656;28;20048;-78
2020/12/02 09:35:13;;;;;;;62.35;25.48;;;4.20;99.90;;;;;;5094625;28;20042;-77
2020/12/02 09:37:39;;;;;;;61.83;24.35;;;4.20;99.90;;;;;;5094314;28;20110;-78
2020/12/02 09:40:06;;;;;;;63.28;24.25;;;4.20;99.90;;;;;;5092112;28;20126;-77
2020/12/02 09:42:51;;;;;;;58.83;23.70;;;4.20;99.90;;;;;;5095188;28;20101;-78
2020/12/02 09:45:29;;;;;;;57.05;23.92;;;4.20;99.90;;;;;;5095040;28;20059;-77
2020/12/02 09:47:55;;;;;;;57.75;23.33;;;4.30;99.90;;;;;;5094300;28;20050;-78
2020/12/02 09:50:21;;;;;;;59.15;23.58;;;4.20;99.90;;;;;;5093704;28;20040;-78
2020/12/02 09:52:49;;;;;;;63.95;24.63;;;4.30;99.90;;;;;;5095196;28;20032;-78
2020/12/02 09:55:21;;;;;;;64.40;26.13;;;4.30;99.90;;;;;;5094779;28;20032;-77
2020/12/02 09:57:48;;;;;;;59.40;23.40;;;4.30;99.90;;;;;;5093423;28;20040;-78
2020/12/02 10:00:15;;;;;;;64.45;23.98;;;4.30;99.90;;;;;;5094132;28;20071;-78
2020/12/02 10:03:09;;;;;;;65.88;24.05;;;4.20;99.90;;;;;;5094255;28;20032;-78
2020/12/02 10:06:09;;;;;;;55.83;23.00;;;4.20;99.90;;;;;;5095381;28;20040;-79
2020/12/02 10:09:01;;;;;;;54.33;23.05;;;4.30;99.90;;;;;;5067848;28;20044;-80
2020/12/02 10:11:38;;;;;;;56.47;22.58;;;4.40;99.90;;;;;;5094590;28;20078;-78
2020/12/02 10:14:25;;;;;;;57.72;22.77;;;4.50;99.90;;;;;;5094287;28;20123;-78
2020/12/02 10:17:01;;;;;;;53.05;22.92;;;4.50;99.90;;;;;;5095066;28;20043;-78
2020/12/02 10:19:54;;;;;;;54.90;22.42;;;4.50;99.90;;;;;;5093588;28;20108;-76
2020/12/02 10:22:57;;;;;;;54.88;24.75;;;4.40;99.90;;;;;;5093388;28;20044;-76
2020/12/02 10:25:38;;;;;;;51.97;20.08;;;4.40;99.90;;;;;;5041314;28;20123;-76
2020/12/02 10:28:25;;;;;;;54.08;20.45;;;4.30;99.90;;;;;;5091766;28;20036;-76
2020/12/02 10:31:02;;;;;;;50.17;21.08;;;4.30;99.90;;;;;;5092632;28;20043;-78
2020/12/02 10:33:59;;;;;;;55.05;21.75;;;4.30;99.90;;;;;;5093574;28;20044;-79
2020/12/02 10:36:30;;;;;;;55.45;21.85;;;4.40;99.90;;;;;;5083607;28;20052;-76
2020/12/02 10:38:59;;;;;;;51.80;20.48;;;4.40;99.90;;;;;;5095124;28;20481;-76
2020/12/02 10:41:32;;;;;;;53.20;22.48;;;4.40;99.90;;;;;;5096180;28;20044;-78
2020/12/02 10:44:09;;;;;;;61.97;22.52;;;4.50;99.90;;;;;;5096553;28;20036;-78
2020/12/02 10:46:52;;;;;;;53.80;21.25;;;4.50;99.90;;;;;;5097427;28;20047;-77
2020/12/02 10:49:24;;;;;;;56.47;21.48;;;4.50;99.90;;;;;;5096592;28;20674;-78
2020/12/02 10:51:53;;;;;;;54.55;21.95;;;4.50;99.90;;;;;;5097017;28;20494;-78
2020/12/02 10:54:23;;;;;;;56.13;20.98;;;4.60;99.90;;;;;;5097436;28;20413;-78
2020/12/02 10:56:55;;;;;;;46.87;19.80;;;4.60;99.90;;;;;;5095910;28;20451;-78
2020/12/02 10:59:21;;;;;;;50.65;20.15;;;4.60;99.90;;;;;;5097585;28;20040;-78
2020/12/02 11:01:48;;;;;;;49.63;20.20;;;4.70;99.90;;;;;;5096899;28;20044;-78
2020/12/02 11:04:16;;;;;;;59.17;21.38;;;4.70;99.90;;;;;;5094623;28;20040;-78
2020/12/02 11:06:57;;;;;;;49.65;19.52;;;4.60;99.90;;;;;;5097147;28;20105;-78
2020/12/02 11:09:32;;;;;;;52.03;20.33;;;4.60;99.90;;;;;;5094747;28;20048;-77
2020/12/02 11:12:27;;;;;;;48.67;18.45;;;4.60;99.90;;;;;;5096719;28;20477;-78
2020/12/02 11:15:16;;;;;;;45.53;18.63;;;4.60;99.90;;;;;;5095152;28;20435;-78
2020/12/02 11:18:02;;;;;;;49.75;19.42;;;4.60;99.90;;;;;;5096453;28;20451;-78
2020/12/02 11:20:32;;;;;;;44.40;18.20;;;4.60;99.90;;;;;;5095016;28;20378;-78
2020/12/02 11:23:07;;;;;;;44.10;18.30;;;4.60;99.90;;;;;;5096689;28;20043;-77
2020/12/02 11:25:43;;;;;;;45.28;18.17;;;4.60;99.90;;;;;;5096092;28;20040;-77
2020/12/02 11:28:09;;;;;;;45.53;18.25;;;4.60;99.90;;;;;;5096275;28;20193;-77
2020/12/02 11:30:38;;;;;;;50.45;20.10;;;4.40;99.90;;;;;;5094031;28;20048;-77
2020/12/02 11:33:32;;;;;;;44.78;18.77;;;4.50;99.90;;;;;;5096005;28;20043;-78
2020/12/02 11:36:24;;;;;;;47.97;18.00;;;4.50;99.90;;;;;;5095225;28;20036;-77
2020/12/02 11:39:01;;;;;;;45.08;18.65;;;4.60;99.90;;;;;;5092918;28;20043;-77
2020/12/02 11:41:36;;;;;;;45.67;19.05;;;4.60;99.90;;;;;;5093057;28;20036;-78
2020/12/02 11:44:11;;;;;;;44.72;16.58;;;4.60;99.90;;;;;;5094300;28;20043;-77
2020/12/02 11:46:39;;;;;;;48.38;18.88;;;4.60;99.90;;;;;;5092482;28;20039;-78
2020/12/02 11:49:14;;;;;;;46.97;18.83;;;4.50;99.90;;;;;;5091218;28;20048;-77
2020/12/02 11:51:52;;;;;;;48.85;19.88;;;4.50;99.90;;;;;;5092901;28;20074;-78
2020/12/02 11:54:21;;;;;;;47.72;18.45;;;4.60;99.90;;;;;;5094582;28;20101;-78
2020/12/02 11:56:49;;;;;;;39.75;17.15;;;4.60;99.90;;;;;;5110973;28;20079;-78
2020/12/02 11:59:19;;;;;;;42.97;17.83;;;4.70;99.90;;;;;;5112056;28;20162;-78
2020/12/02 12:01:54;;;;;;;37.55;17.63;;;4.70;99.90;;;;;;5114310;28;20521;-78
2020/12/02 12:04:30;;;;;;;40.78;17.85;;;4.60;99.90;;;;;;5112723;28;20039;-78
2020/12/02 12:07:00;;;;;;;40.65;16.83;;;4.50;99.90;;;;;;5114006;28;20110;-78
2020/12/02 12:09:33;;;;;;;37.60;15.68;;;4.60;99.90;;;;;;5113454;28;20408;-77
2020/12/02 12:12:05;;;;;;;35.03;15.38;;;4.60;99.90;;;;;;5113719;28;20063;-77
2020/12/02 12:14:40;;;;;;;29.00;13.77;;;4.70;99.90;;;;;;5113462;28;20032;-78
2020/12/02 12:17:12;;;;;;;25.80;12.80;;;4.70;99.90;;;;;;5112339;28;20069;-78
2020/12/02 12:19:45;;;;;;;26.48;12.10;;;4.70;99.90;;;;;;5112772;28;20039;-78
2020/12/02 12:22:29;;;;;;;25.52;11.95;;;4.70;99.90;;;;;;5113461;28;20082;-78
2020/12/02 12:24:59;;;;;;;24.35;10.90;;;4.70;99.90;;;;;;5113350;28;20043;-77
2020/12/02 12:27:27;;;;;;;26.27;12.30;;;4.60;99.90;;;;;;5111581;28;20493;-78
2020/12/02 12:29:54;;;;;;;30.13;12.25;;;4.70;99.90;;;;;;5111403;28;20483;-77
2020/12/02 12:32:30;;;;;;;22.02;9.65;;;4.70;99.90;;;;;;5113123;28;20088;-77
2020/12/02 12:34:58;;;;;;;18.13;9.43;;;4.60;99.90;;;;;;5113042;27;20039;-77
2020/12/02 12:37:29;;;;;;;18.65;9.73;;;4.60;99.90;;;;;;5113130;28;20154;-77
2020/12/02 12:40:00;;;;;;;20.42;9.98;;;4.60;99.90;;;;;;5112239;28;20043;-77
2020/12/02 12:42:28;;;;;;;17.00;8.77;;;4.60;99.90;;;;;;5112736;28;20093;-77
2020/12/02 12:44:58;;;;;;;15.98;7.88;;;4.50;99.90;;;;;;5111476;28;20050;-77
2020/12/02 12:47:26;;;;;;;19.00;8.43;;;4.60;99.90;;;;;;5111632;28;20134;-77
2020/12/02 12:49:52;;;;;;;20.92;9.98;;;4.50;99.90;;;;;;5112129;28;20039;-77
2020/12/02 12:52:21;;;;;;;19.00;9.52;;;4.40;99.90;;;;;;5111785;28;20061;-77
2020/12/02 12:54:47;;;;;;;22.17;9.90;;;4.60;99.90;;;;;;5112775;28;20028;-78
2020/12/02 12:57:16;;;;;;;18.40;8.82;;;4.50;99.90;;;;;;5111988;28;20054;-77